Terminal Aerodrome Forecast
Issued by NWS Chicago, IL

Home | Current Version | Previous Version | Graphics & Text | Print | Product List | Glossary On
Versions: 1 2 3 4 5 6 7 8 9 10 11 12 13 14 15 16 17 18 19 20 21 22 23 24 25 26 27 28 29 30
544
FTUS43 KLOT 261522 AAB
TAFRFD
TAF AMD
KRFD 261522Z 2615/2712 20012G18KT P6SM VCSH SCT008 BKN025 OVC050
      TEMPO 2615/2618 4SM -RA BR BKN008
     FM262100 25012KT P6SM VCSH SCT015 OVC035
      TEMPO 2703/2707 4SM TSRA SCT012 OVC020CB
     FM270700 17010KT 2SM RA BR VCTS SCT008 OVC015CB
     FM271000 29010KT 6SM -SHRA OVC008=

USA.gov is the U.S. government's official web portal to all federal, state and local government web resources and services.